createdAt,value
2022-11-22T00:01:20.300Z,26.88
2022-11-22T00:03:48.590Z,27.58
2022-11-22T00:06:18.241Z,26.65
2022-11-22T00:08:46.505Z,26.77
2022-11-22T00:11:14.693Z,27.35
2022-11-22T00:13:43.024Z,25.55
2022-11-22T00:16:11.385Z,26.40
2022-11-22T00:18:39.575Z,26.55
2022-11-22T00:21:08.149Z,25.77
2022-11-22T00:23:37.898Z,26.42
2022-11-22T00:26:07.169Z,26.90
2022-11-22T00:28:35.399Z,25.27
2022-11-22T00:31:03.631Z,24.27
2022-11-22T00:33:31.865Z,23.77
2022-11-22T00:36:00.102Z,24.40
2022-11-22T00:38:28.408Z,23.48
2022-11-22T00:40:58.149Z,23.42
2022-11-22T00:43:26.457Z,23.05
2022-11-22T00:45:54.694Z,23.45
2022-11-22T00:48:22.954Z,23.35
2022-11-22T00:50:51.333Z,21.65
2022-11-22T00:53:19.553Z,22.55
2022-11-22T00:55:47.801Z,23.13
2022-11-22T00:58:17.440Z,23.60
2022-11-22T01:00:45.700Z,22.52
2022-11-22T01:03:14.411Z,22.63
2022-11-22T01:05:42.693Z,20.95
2022-11-22T01:08:11.085Z,20.88
2022-11-22T01:10:39.307Z,20.83
2022-11-22T01:13:10.329Z,19.92
2022-11-22T01:15:40.066Z,20.08
2022-11-22T01:18:08.358Z,20.63
2022-11-22T01:20:36.580Z,21.25
2022-11-22T01:23:04.929Z,19.33
2022-11-22T01:25:33.287Z,20.00
2022-11-22T01:28:01.510Z,20.50
2022-11-22T01:30:29.878Z,19.80
2022-11-22T01:32:59.638Z,19.58
2022-11-22T01:35:27.885Z,18.52
2022-11-22T01:37:56.071Z,19.42
2022-11-22T01:40:24.367Z,18.95
2022-11-22T01:42:53.885Z,19.17
2022-11-22T01:45:55.714Z,17.33
2022-11-22T01:48:52.133Z,18.63
2022-11-22T01:51:22.869Z,18.25
2022-11-22T01:53:51.288Z,18.17
2022-11-22T01:56:19.510Z,18.70
2022-11-22T01:58:49.358Z,17.27
2022-11-22T02:01:17.737Z,19.00
2022-11-22T02:03:48.192Z,17.05
2022-11-22T02:06:16.567Z,18.33
2022-11-22T02:08:48.831Z,16.42
2022-11-22T02:11:17.107Z,16.77
2022-11-22T02:13:45.380Z,16.25
2022-11-22T02:16:13.705Z,16.42
2022-11-22T02:18:41.950Z,16.73
2022-11-22T02:21:11.825Z,16.02
2022-11-22T02:23:45.992Z,15.57
2022-11-22T02:26:16.261Z,16.15
2022-11-22T02:28:44.545Z,14.65
2022-11-22T02:31:40.274Z,16.58
2022-11-22T02:34:08.657Z,15.45
2022-11-22T02:36:39.879Z,15.63
2022-11-22T02:39:08.219Z,15.60
2022-11-22T02:41:38.072Z,16.70
2022-11-22T02:44:07.646Z,14.52
2022-11-22T02:46:35.850Z,15.68
2022-11-22T02:49:04.135Z,14.77
2022-11-22T02:51:32.533Z,14.50
2022-11-22T02:54:00.858Z,13.82
2022-11-22T02:56:29.087Z,16.15
2022-11-22T02:58:58.767Z,14.38
2022-11-22T03:01:26.994Z,14.02
2022-11-22T03:03:55.339Z,13.90
2022-11-22T03:06:23.545Z,14.07
2022-11-22T03:08:56.137Z,14.52
2022-11-22T03:11:25.036Z,14.02
2022-11-22T03:13:53.305Z,13.27
2022-11-22T03:16:23.195Z,14.27
2022-11-22T03:18:51.561Z,13.07
2022-11-22T03:21:19.781Z,13.90
2022-11-22T03:23:48.045Z,12.13
2022-11-22T03:26:16.269Z,13.90
2022-11-22T03:28:44.550Z,12.82
2022-11-22T03:31:12.774Z,13.88
2022-11-22T03:33:42.556Z,12.88
2022-11-22T03:36:10.746Z,12.55
2022-11-22T03:38:39.001Z,12.57
2022-11-22T03:41:07.192Z,11.50
2022-11-22T03:43:35.481Z,12.30
2022-11-22T03:46:03.590Z,13.32
2022-11-22T03:48:31.973Z,11.80
2022-11-22T03:51:06.348Z,12.45
2022-11-22T03:53:34.745Z,12.68
2022-11-22T03:56:02.966Z,11.30
2022-11-22T03:58:31.396Z,11.40
2022-11-22T04:00:59.819Z,11.82
2022-11-22T04:03:28.345Z,11.93
2022-11-22T04:05:56.624Z,11.93
2022-11-22T04:08:26.300Z,11.38
2022-11-22T04:10:54.760Z,11.90
2022-11-22T04:13:43.206Z,10.60
2022-11-22T04:16:10.430Z,10.73
2022-11-22T04:18:38.849Z,10.30
2022-11-22T04:21:24.667Z,11.23
2022-11-22T04:24:08.234Z,11.77
2022-11-22T04:26:36.558Z,11.30
2022-11-22T04:29:10.178Z,10.05
2022-11-22T04:31:56.511Z,10.80
2022-11-22T04:34:25.225Z,9.63
2022-11-22T04:36:53.416Z,10.38
2022-11-22T04:39:23.201Z,10.43
2022-11-22T04:42:13.921Z,10.40
2022-11-22T04:44:41.240Z,10.02
2022-11-22T04:47:09.565Z,10.80
2022-11-22T04:49:37.908Z,10.43
2022-11-22T04:52:23.665Z,11.02
2022-11-22T04:54:53.461Z,9.82
2022-11-22T04:57:21.762Z,10.30
2022-11-22T04:59:50.006Z,9.85
2022-11-22T05:02:18.260Z,8.90
2022-11-22T05:04:50.652Z,9.95
2022-11-22T05:07:19.499Z,9.48
2022-11-22T05:09:47.962Z,9.00
2022-11-22T05:12:17.752Z,9.55
2022-11-22T05:14:45.996Z,10.93
2022-11-22T05:17:14.326Z,9.70
2022-11-22T05:19:48.900Z,9.43
2022-11-22T05:22:17.952Z,9.23
2022-11-22T05:24:45.352Z,8.88
2022-11-22T05:27:13.597Z,9.30
2022-11-22T05:29:43.500Z,9.07
2022-11-22T05:32:12.095Z,9.00
2022-11-22T05:34:40.370Z,8.63
2022-11-22T05:37:08.667Z,10.93
2022-11-22T05:39:36.853Z,9.38
2022-11-22T05:42:06.083Z,8.43
2022-11-22T05:44:34.302Z,8.65
2022-11-22T05:47:04.057Z,10.05
2022-11-22T05:49:33.393Z,8.70
2022-11-22T05:52:01.693Z,9.55
2022-11-22T05:54:30.077Z,9.15
2022-11-22T05:56:58.270Z,8.35
2022-11-22T05:59:26.564Z,8.90
2022-11-22T06:01:54.839Z,8.55
2022-11-22T06:04:24.674Z,9.30
2022-11-22T06:06:52.909Z,8.63
2022-11-22T06:09:21.177Z,8.82
2022-11-22T06:11:49.557Z,14.55
2022-11-22T06:14:17.901Z,13.52
2022-11-22T06:16:46.139Z,14.35
2022-11-22T06:19:14.492Z,23.58
2022-11-22T06:21:44.209Z,22.08
2022-11-22T06:24:12.644Z,20.88
2022-11-22T06:26:40.945Z,26.95
2022-11-22T06:29:09.158Z,30.95
2022-11-22T06:31:37.437Z,30.83
2022-11-22T06:34:06.513Z,22.80
2022-11-22T06:36:35.553Z,28.67
2022-11-22T06:39:33.188Z,28.05
2022-11-22T06:42:03.000Z,23.48
2022-11-22T06:44:31.275Z,24.92
2022-11-22T06:46:59.622Z,28.08
2022-11-22T06:49:28.013Z,28.65
2022-11-22T06:51:56.485Z,25.48
2022-11-22T06:54:26.312Z,33.92
2022-11-22T06:56:54.600Z,34.53
2022-11-22T06:59:22.903Z,41.80
2022-11-22T07:01:51.457Z,46.33
2022-11-22T07:04:20.824Z,51.70
2022-11-22T07:06:49.118Z,51.05
2022-11-22T07:09:17.421Z,42.05
2022-11-22T07:11:47.152Z,49.08
2022-11-22T07:14:15.409Z,46.92
2022-11-22T07:16:43.601Z,47.08
2022-11-22T07:19:11.882Z,47.35
2022-11-22T07:21:40.074Z,50.05
2022-11-22T07:24:09.823Z,49.97
2022-11-22T07:26:38.235Z,49.75
2022-11-22T07:29:07.958Z,48.33
2022-11-22T07:31:36.302Z,49.47
2022-11-22T07:34:04.602Z,47.78
2022-11-22T07:36:32.918Z,48.67
2022-11-22T07:39:01.815Z,50.15
2022-11-22T07:41:29.980Z,45.97
2022-11-22T07:43:58.592Z,45.67
2022-11-22T07:46:31.435Z,48.08
2022-11-22T07:49:00.267Z,46.28
2022-11-22T07:51:28.549Z,48.17
2022-11-22T07:53:56.896Z,46.35
2022-11-22T07:56:25.346Z,47.97
2022-11-22T07:58:54.132Z,45.28
2022-11-22T08:01:23.755Z,45.30
2022-11-22T08:03:53.655Z,43.60
2022-11-22T08:06:21.974Z,45.60
2022-11-22T08:08:50.391Z,44.47
2022-11-22T08:11:18.589Z,42.05
2022-11-22T08:13:46.889Z,42.75
2022-11-22T08:16:16.274Z,44.53
2022-11-22T08:18:47.579Z,40.50
2022-11-22T08:21:17.924Z,42.85
2022-11-22T08:23:46.479Z,40.97
2022-11-22T08:26:15.781Z,41.00
2022-11-22T08:28:44.691Z,40.95
2022-11-22T08:31:14.175Z,39.92
2022-11-22T08:33:42.716Z,40.90
2022-11-22T08:36:11.086Z,37.97
2022-11-22T08:38:40.737Z,39.45
2022-11-22T08:41:08.984Z,36.65
2022-11-22T08:43:37.356Z,39.28
2022-11-22T08:46:05.845Z,34.58
2022-11-22T08:48:34.988Z,35.70
2022-11-22T08:51:03.901Z,36.13
2022-11-22T08:53:33.181Z,34.95
2022-11-22T08:56:03.570Z,37.45
2022-11-22T08:58:32.326Z,41.13
2022-11-22T09:01:05.495Z,38.78
2022-11-22T09:03:33.896Z,44.38
2022-11-22T09:08:58.619Z,41.15
2022-11-22T09:11:38.903Z,43.33
2022-11-22T09:14:07.386Z,43.85
2022-11-22T09:16:35.664Z,41.10
2022-11-22T09:19:03.956Z,43.67
2022-11-22T09:21:32.266Z,48.20
2022-11-22T09:24:00.544Z,47.72
2022-11-22T09:26:28.797Z,46.72
2022-11-22T09:28:59.272Z,48.88
2022-11-22T09:31:27.619Z,50.80
2022-11-22T09:33:56.145Z,57.13
2022-11-22T09:36:26.488Z,51.65
2022-11-22T09:38:54.825Z,51.85
2022-11-22T09:41:51.561Z,49.20
2022-11-22T09:44:24.555Z,50.00
2022-11-22T09:46:54.089Z,48.53
2022-11-22T09:49:30.038Z,47.47
2022-11-22T09:52:04.817Z,48.40
2022-11-22T09:54:38.272Z,50.13
2022-11-22T09:57:06.648Z,43.92
2022-11-22T09:59:36.870Z,43.22
2022-11-22T10:02:18.049Z,45.83
2022-11-22T10:04:48.999Z,43.55
2022-11-22T10:07:19.322Z,43.30
2022-11-22T10:09:49.477Z,43.72
2022-11-22T10:12:19.576Z,57.65
2022-11-22T10:14:53.661Z,42.88
2022-11-22T10:17:29.597Z,51.85
2022-11-22T10:20:03.224Z,60.33
2022-11-22T10:22:31.596Z,51.10
2022-11-22T10:25:00.786Z,59.00
2022-11-22T10:27:30.118Z,69.63
2022-11-22T10:30:01.516Z,65.38
2022-11-22T10:32:31.382Z,71.70
2022-11-22T10:35:10.345Z,84.55
2022-11-22T10:37:41.921Z,114.55
2022-11-22T10:40:15.292Z,147.02
2022-11-22T10:42:55.164Z,127.47
2022-11-22T10:45:27.293Z,138.27
2022-11-22T10:48:01.111Z,130.90
2022-11-22T10:50:33.616Z,125.18
2022-11-22T10:53:03.345Z,119.93
2022-11-22T10:55:43.070Z,115.95
2022-11-22T10:58:16.876Z,120.80
2022-11-22T11:00:48.451Z,111.00
2022-11-22T11:03:27.492Z,106.65
2022-11-22T11:11:35.386Z,102.47
2022-11-22T11:14:06.028Z,99.38
2022-11-22T11:16:36.974Z,99.35
2022-11-22T11:19:12.603Z,94.18
2022-11-22T11:21:40.910Z,97.72
2022-11-22T11:24:13.560Z,95.50
2022-11-22T11:26:42.809Z,92.72
2022-11-22T11:29:37.614Z,90.25
2022-11-22T11:32:13.461Z,85.60
2022-11-22T11:34:43.388Z,88.15
2022-11-22T11:37:20.516Z,87.22
2022-11-22T11:39:48.838Z,90.35
2022-11-22T11:42:25.338Z,83.30
2022-11-22T11:44:53.673Z,66.85
2022-11-22T11:47:33.559Z,64.20
2022-11-22T11:50:01.842Z,60.17
2022-11-22T11:52:31.720Z,70.97
2022-11-22T11:55:01.073Z,63.38
2022-11-22T11:57:29.974Z,64.32
2022-11-22T11:59:59.318Z,65.32
2022-11-22T12:02:31.339Z,62.35
2022-11-22T12:05:01.116Z,60.17
2022-11-22T12:07:31.122Z,67.53
2022-11-22T12:09:59.380Z,60.97
2022-11-22T12:12:39.735Z,52.88
2022-11-22T12:15:13.872Z,54.25
2022-11-22T12:17:51.273Z,55.15
2022-11-22T12:20:21.855Z,56.58
2022-11-22T12:22:57.116Z,57.20
2022-11-22T12:25:33.387Z,59.15
2022-11-22T12:28:04.777Z,56.42
2022-11-22T12:30:33.284Z,54.22
2022-11-22T12:33:04.104Z,54.08
2022-11-22T12:35:44.375Z,57.88
2022-11-22T12:38:14.350Z,52.08
2022-11-22T12:40:43.384Z,59.15
2022-11-22T12:43:15.713Z,60.88
2022-11-22T12:45:44.842Z,52.97
2022-11-22T12:48:17.847Z,59.30
2022-11-22T12:50:47.313Z,57.50
2022-11-22T12:53:16.922Z,54.10
2022-11-22T12:55:46.392Z,66.35
2022-11-22T12:58:19.892Z,75.32
2022-11-22T13:00:55.719Z,87.95
2022-11-22T13:03:28.734Z,83.70
2022-11-22T13:05:58.483Z,88.53
2022-11-22T13:08:29.261Z,92.03
2022-11-22T13:10:59.296Z,83.70
2022-11-22T13:13:29.458Z,82.07
2022-11-22T13:15:58.169Z,80.40
2022-11-22T13:18:28.832Z,84.38
2022-11-22T13:20:59.497Z,80.45
2022-11-22T13:23:36.924Z,82.65
2022-11-22T13:26:11.701Z,80.05
2022-11-22T13:28:42.890Z,76.45
2022-11-22T13:31:18.602Z,69.28
2022-11-22T13:33:56.661Z,98.82
2022-11-22T13:36:46.052Z,82.38
2022-11-22T13:39:17.811Z,78.93
2022-11-22T13:41:52.698Z,84.75
2022-11-22T13:44:46.500Z,82.25
2022-11-22T13:47:36.010Z,80.75
2022-11-22T13:50:20.773Z,80.07
2022-11-22T13:52:52.931Z,80.30
2022-11-22T13:55:29.098Z,76.28
2022-11-22T13:57:57.413Z,87.82
2022-11-22T14:00:46.463Z,75.80
2022-11-22T14:03:41.191Z,79.28
2022-11-22T14:06:31.869Z,83.72
2022-11-22T14:09:17.893Z,71.72
2022-11-22T14:11:50.730Z,73.60
2022-11-22T14:14:20.600Z,72.35
2022-11-22T14:16:53.440Z,73.18
2022-11-22T14:19:43.845Z,72.13
2022-11-22T14:22:19.812Z,63.35
2022-11-22T14:25:17.944Z,66.20
2022-11-22T14:27:50.080Z,67.03
2022-11-22T14:30:19.518Z,59.30
2022-11-22T14:32:58.076Z,62.15
2022-11-22T14:35:31.399Z,66.90
2022-11-22T14:38:06.281Z,59.85
2022-11-22T14:40:36.479Z,59.55
2022-11-22T14:43:21.733Z,61.35
2022-11-22T14:45:51.767Z,56.13
2022-11-22T14:48:21.197Z,53.38
2022-11-22T14:50:52.060Z,50.42
2022-11-22T14:53:26.384Z,50.20
2022-11-22T14:55:57.850Z,48.47
2022-11-22T14:58:28.537Z,46.70
2022-11-22T15:01:12.169Z,43.13
2022-11-22T15:09:16.476Z,40.65
2022-11-22T15:09:21.647Z,40.15
2022-11-22T15:10:24.525Z,36.85
2022-11-22T15:13:22.545Z,50.83
2022-11-22T15:59:10.150Z,52.30
2022-11-22T16:01:40.207Z,53.17
2022-11-22T16:04:21.233Z,54.15
2022-11-22T16:06:51.892Z,55.90
2022-11-22T16:09:25.033Z,60.55
2022-11-22T16:12:01.666Z,59.58
2022-11-22T16:14:46.548Z,62.60
2022-11-22T16:17:26.028Z,62.28
2022-11-22T16:20:16.309Z,65.93
2022-11-22T16:22:44.544Z,63.60
2022-11-22T16:25:24.226Z,62.08
2022-11-22T16:27:52.509Z,64.70
2022-11-22T16:30:23.628Z,63.70
2022-11-22T16:32:56.540Z,65.20
2022-11-22T16:35:30.069Z,60.50
2022-11-22T16:37:58.579Z,65.82
2022-11-22T16:40:26.776Z,62.25
2022-11-22T16:42:55.046Z,62.20
2022-11-22T16:45:23.655Z,62.10
2022-11-22T16:48:16.673Z,62.17
2022-11-22T16:50:44.496Z,58.30
2022-11-22T16:53:13.652Z,59.67
2022-11-22T16:55:42.143Z,55.42
2022-11-22T16:58:17.899Z,55.97
2022-11-22T17:00:46.262Z,52.67
2022-11-22T17:03:16.172Z,50.80
2022-11-22T17:05:46.069Z,52.67
2022-11-22T17:08:16.134Z,49.83
2022-11-22T17:10:47.432Z,51.78
2022-11-22T17:13:20.611Z,49.97
2022-11-22T17:15:49.093Z,49.55
2022-11-22T17:18:17.318Z,48.60
2022-11-22T17:20:47.079Z,50.20
2022-11-22T17:23:18.474Z,49.17
2022-11-22T17:25:46.799Z,45.38
2022-11-22T17:28:14.999Z,48.67
2022-11-22T17:30:43.308Z,44.92
2022-11-22T17:33:11.956Z,46.60
2022-11-22T17:35:40.280Z,42.10
2022-11-22T17:38:10.117Z,42.88
2022-11-22T17:40:38.525Z,43.05
2022-11-22T17:43:06.737Z,42.03
2022-11-22T17:45:40.326Z,41.67
2022-11-22T17:48:08.609Z,41.90
2022-11-22T17:50:39.538Z,40.10
2022-11-22T17:53:09.685Z,39.05
2022-11-22T17:56:08.548Z,39.67
2022-11-22T17:58:27.674Z,38.30
2022-11-22T18:01:03.597Z,39.13
2022-11-22T18:03:31.903Z,36.55
2022-11-22T18:06:00.430Z,37.53
2022-11-22T18:08:30.185Z,37.13
2022-11-22T18:10:59.792Z,39.00
2022-11-22T18:13:28.104Z,37.72
2022-11-22T18:16:01.695Z,35.35
2022-11-22T18:21:20.529Z,35.97
2022-11-22T18:23:50.191Z,35.53
2022-11-22T18:31:55.442Z,34.42
2022-11-22T18:34:23.750Z,29.98
2022-11-22T18:37:00.450Z,31.30
2022-11-22T18:39:32.132Z,30.73
2022-11-22T18:42:00.749Z,29.85
2022-11-22T18:44:29.231Z,32.88
2022-11-22T18:46:57.549Z,29.98
2022-11-22T18:49:25.779Z,29.45
2022-11-22T18:51:54.185Z,28.60
2022-11-22T18:54:22.970Z,30.42
2022-11-22T18:56:52.959Z,29.15
2022-11-22T18:59:21.242Z,27.30
2022-11-22T19:01:49.498Z,27.92
2022-11-22T19:04:17.920Z,28.55
2022-11-22T19:06:46.145Z,29.48
2022-11-22T19:09:14.432Z,25.73
2022-11-22T19:11:42.828Z,27.52
2022-11-22T19:14:12.708Z,25.65
2022-11-22T19:16:41.063Z,26.08
2022-11-22T19:19:11.508Z,26.45
2022-11-22T19:21:39.872Z,26.25
2022-11-22T19:24:08.683Z,25.02
2022-11-22T19:26:40.383Z,24.88
2022-11-22T19:29:08.857Z,23.77
2022-11-22T19:31:38.569Z,26.70
2022-11-22T19:34:07.049Z,23.45
2022-11-22T19:36:36.304Z,24.20
2022-11-22T19:39:05.560Z,23.00
2022-11-22T19:41:33.943Z,24.52
2022-11-22T19:44:02.359Z,24.60
2022-11-22T19:46:30.674Z,29.42
2022-11-22T19:49:01.681Z,38.70
2022-11-22T19:51:30.976Z,32.13
2022-11-22T19:54:00.189Z,38.50
2022-11-22T19:56:30.391Z,44.38
2022-11-22T19:58:59.767Z,45.67
2022-11-22T20:01:29.081Z,43.72
2022-11-22T20:03:58.721Z,48.40
2022-11-22T20:06:28.969Z,40.08
2022-11-22T20:09:01.658Z,39.95
2022-11-22T20:11:30.285Z,43.08
2022-11-22T20:13:58.523Z,42.65
2022-11-22T20:16:27.473Z,43.92
2022-11-22T20:18:55.757Z,37.80
2022-11-22T20:21:24.129Z,35.08
2022-11-22T20:23:53.936Z,34.30
2022-11-22T20:26:22.624Z,34.78
2022-11-22T20:28:55.733Z,33.17
2022-11-22T20:31:24.113Z,33.55
2022-11-22T20:33:52.981Z,33.03
2022-11-22T20:36:21.956Z,32.53
2022-11-22T20:38:50.179Z,31.85
2022-11-22T20:41:21.600Z,30.33
2022-11-22T20:43:50.716Z,28.92
2022-11-22T20:46:19.757Z,30.15
2022-11-22T20:48:48.242Z,28.88
2022-11-22T20:51:17.582Z,30.90
2022-11-22T20:53:46.107Z,28.73
2022-11-22T20:56:14.405Z,32.13
2022-11-22T20:58:44.208Z,27.27
2022-11-22T21:01:14.184Z,29.42
2022-11-22T21:03:42.494Z,28.20
2022-11-22T21:06:11.313Z,27.65
2022-11-22T21:08:39.621Z,28.02
2022-11-22T21:11:08.858Z,26.83
2022-11-22T21:13:37.262Z,28.33
2022-11-22T21:16:21.458Z,26.38
2022-11-22T21:18:51.736Z,27.13
2022-11-22T21:21:23.163Z,25.63
2022-11-22T21:23:51.845Z,27.17
2022-11-22T21:26:20.080Z,26.42
2022-11-22T21:28:48.509Z,26.75
2022-11-22T21:31:18.204Z,25.33
2022-11-22T21:33:46.879Z,26.15
2022-11-22T21:36:15.295Z,26.00
2022-11-22T21:38:43.563Z,25.48
2022-11-22T21:41:38.911Z,24.73
2022-11-22T21:44:02.702Z,24.60
2022-11-22T21:46:32.365Z,24.30
2022-11-22T21:49:00.731Z,25.55
2022-11-22T21:51:29.008Z,24.17
2022-11-22T21:53:58.847Z,22.40
2022-11-22T21:56:27.341Z,23.30
2022-11-22T21:58:55.908Z,23.67
2022-11-22T22:01:24.426Z,23.60
2022-11-22T22:03:54.302Z,23.00
2022-11-22T22:06:22.657Z,25.35
2022-11-22T22:08:50.953Z,21.85
2022-11-22T22:11:19.261Z,22.85
2022-11-22T22:13:47.503Z,22.33
2022-11-22T22:16:19.200Z,22.92
2022-11-22T22:18:47.785Z,22.10
2022-11-22T22:21:18.135Z,21.73
2022-11-22T22:23:46.568Z,21.85
2022-11-22T22:26:15.628Z,21.00
2022-11-22T22:28:45.130Z,23.95
2022-11-22T22:31:14.680Z,21.17
2022-11-22T22:33:43.224Z,19.83
2022-11-22T22:36:11.785Z,21.48
2022-11-22T22:38:41.909Z,19.20
2022-11-22T22:41:11.923Z,20.20
2022-11-22T22:43:41.041Z,19.67
2022-11-22T22:46:11.361Z,19.02
2022-11-22T22:48:39.800Z,19.75
2022-11-22T22:51:08.615Z,18.75
2022-11-22T22:53:36.961Z,20.20
2022-11-22T22:56:08.121Z,19.10
2022-11-22T22:58:37.179Z,18.77
2022-11-22T23:01:06.865Z,17.98
2022-11-22T23:03:36.048Z,18.63
2022-11-22T23:06:08.220Z,19.25
2022-11-22T23:08:36.629Z,17.98
2022-11-22T23:11:07.714Z,16.48
2022-11-22T23:13:36.339Z,17.80
2022-11-22T23:16:04.843Z,16.95
2022-11-22T23:18:35.686Z,17.42
2022-11-22T23:21:04.284Z,17.92
2022-11-22T23:23:32.587Z,18.70
2022-11-22T23:26:02.976Z,17.42
2022-11-22T23:28:33.755Z,17.52
2022-11-22T23:31:06.466Z,16.35
2022-11-22T23:33:34.993Z,17.80
2022-11-22T23:36:04.737Z,16.20
2022-11-22T23:38:33.004Z,15.88
2022-11-22T23:41:01.241Z,15.68
2022-11-22T23:43:29.692Z,14.98
2022-11-22T23:45:59.896Z,15.52
2022-11-22T23:48:28.327Z,18.58
2022-11-22T23:50:56.589Z,15.75
2022-11-22T23:53:24.916Z,14.80
2022-11-22T23:55:53.077Z,15.38
2022-11-22T23:58:21.255Z,17.90
